sensor_id;sensor_type;location;lat;lon;timestamp;temperature;humidity
5796;DHT22;2924;51.458;7.046;2022-11-21T00:01:53;3.20;99.90
5796;DHT22;2924;51.458;7.046;2022-11-21T00:04:18;3.10;99.90
5796;DHT22;2924;51.458;7.046;2022-11-21T00:06:44;3.00;99.90
5796;DHT22;2924;51.458;7.046;2022-11-21T00:09:10;3.00;99.90
5796;DHT22;2924;51.458;7.046;2022-11-21T00:11:35;2.90;99.90
5796;DHT22;2924;51.458;7.046;2022-11-21T00:14:01;2.90;99.90
5796;DHT22;2924;51.458;7.046;2022-11-21T00:16:27;2.90;99.90
5796;DHT22;2924;51.458;7.046;2022-11-21T00:18:52;2.90;99.90
5796;DHT22;2924;51.458;7.046;2022-11-21T00:21:18;2.80;99.90
5796;DHT22;2924;51.458;7.046;2022-11-21T00:23:46;2.80;99.90
5796;DHT22;2924;51.458;7.046;2022-11-21T00:26:13;2.80;99.90
5796;DHT22;2924;51.458;7.046;2022-11-21T00:28:39;2.70;99.90
5796;DHT22;2924;51.458;7.046;2022-11-21T00:31:05;2.60;99.90
5796;DHT22;2924;51.458;7.046;2022-11-21T00:33:33;2.60;99.90
5796;DHT22;2924;51.458;7.046;2022-11-21T00:36:07;2.50;99.90
5796;DHT22;2924;51.458;7.046;2022-11-21T00:38:33;2.60;99.90
5796;DHT22;2924;51.458;7.046;2022-11-21T00:40:59;2.60;99.90
5796;DHT22;2924;51.458;7.046;2022-11-21T00:43:25;2.60;99.90
5796;DHT22;2924;51.458;7.046;2022-11-21T00:45:50;2.50;99.90
5796;DHT22;2924;51.458;7.046;2022-11-21T00:48:16;2.50;99.90
5796;DHT22;2924;51.458;7.046;2022-11-21T00:50:42;2.50;99.90
5796;DHT22;2924;51.458;7.046;2022-11-21T00:53:07;2.50;99.90
5796;DHT22;2924;51.458;7.046;2022-11-21T00:55:33;2.50;99.90
5796;DHT22;2924;51.458;7.046;2022-11-21T00:58:01;2.50;99.90
5796;DHT22;2924;51.458;7.046;2022-11-21T01:00:26;2.40;99.90
5796;DHT22;2924;51.458;7.046;2022-11-21T01:02:52;2.50;99.90
5796;DHT22;2924;51.458;7.046;2022-11-21T01:05:18;2.50;99.90
5796;DHT22;2924;51.458;7.046;2022-11-21T01:07:43;2.40;99.90
5796;DHT22;2924;51.458;7.046;2022-11-21T01:10:09;2.40;99.90
5796;DHT22;2924;51.458;7.046;2022-11-21T01:12:35;2.40;99.90
5796;DHT22;2924;51.458;7.046;2022-11-21T01:15:00;2.40;99.90
5796;DHT22;2924;51.458;7.046;2022-11-21T01:17:26;2.40;99.90
5796;DHT22;2924;51.458;7.046;2022-11-21T01:19:52;2.40;99.90
5796;DHT22;2924;51.458;7.046;2022-11-21T01:22:17;2.40;99.90
5796;DHT22;2924;51.458;7.046;2022-11-21T01:24:43;2.50;99.90
5796;DHT22;2924;51.458;7.046;2022-11-21T01:27:08;2.50;99.90
5796;DHT22;2924;51.458;7.046;2022-11-21T01:29:34;2.50;99.90
5796;DHT22;2924;51.458;7.046;2022-11-21T01:31:59;2.50;99.90
5796;DHT22;2924;51.458;7.046;2022-11-21T01:34:25;2.50;99.90
5796;DHT22;2924;51.458;7.046;2022-11-21T01:36:51;2.50;99.90
5796;DHT22;2924;51.458;7.046;2022-11-21T01:39:16;2.50;99.90
5796;DHT22;2924;51.458;7.046;2022-11-21T01:41:44;2.50;99.90
5796;DHT22;2924;51.458;7.046;2022-11-21T01:46:41;2.50;99.90
5796;DHT22;2924;51.458;7.046;2022-11-21T01:49:10;2.50;99.90
5796;DHT22;2924;51.458;7.046;2022-11-21T01:54:41;2.50;99.90
5796;DHT22;2924;51.458;7.046;2022-11-21T01:57:25;2.50;99.90
5796;DHT22;2924;51.458;7.046;2022-11-21T02:02:27;2.50;99.90
5796;DHT22;2924;51.458;7.046;2022-11-21T02:04:54;2.60;99.90
5796;DHT22;2924;51.458;7.046;2022-11-21T02:07:22;2.60;99.90
5796;DHT22;2924;51.458;7.046;2022-11-21T02:09:56;2.60;99.90
5796;DHT22;2924;51.458;7.046;2022-11-21T02:15:13;2.60;99.90
5796;DHT22;2924;51.458;7.046;2022-11-21T02:17:38;2.60;99.90
5796;DHT22;2924;51.458;7.046;2022-11-21T02:20:06;2.60;99.90
5796;DHT22;2924;51.458;7.046;2022-11-21T02:22:53;2.60;99.90
5796;DHT22;2924;51.458;7.046;2022-11-21T02:25:24;2.50;99.90
5796;DHT22;2924;51.458;7.046;2022-11-21T02:27:54;2.60;99.90
5796;DHT22;2924;51.458;7.046;2022-11-21T02:30:22;2.60;99.90
5796;DHT22;2924;51.458;7.046;2022-11-21T02:32:48;2.60;99.90
5796;DHT22;2924;51.458;7.046;2022-11-21T02:35:15;2.70;99.90
5796;DHT22;2924;51.458;7.046;2022-11-21T02:37:43;2.70;99.90
5796;DHT22;2924;51.458;7.046;2022-11-21T02:40:17;2.70;99.90
5796;DHT22;2924;51.458;7.046;2022-11-21T02:42:56;2.60;99.90
5796;DHT22;2924;51.458;7.046;2022-11-21T02:45:30;2.60;99.90
5796;DHT22;2924;51.458;7.046;2022-11-21T02:47:57;2.60;99.90
5796;DHT22;2924;51.458;7.046;2022-11-21T02:50:28;2.60;99.90
5796;DHT22;2924;51.458;7.046;2022-11-21T02:52:54;2.60;99.90
5796;DHT22;2924;51.458;7.046;2022-11-21T02:55:21;2.60;99.90
5796;DHT22;2924;51.458;7.046;2022-11-21T02:57:46;2.60;99.90
5796;DHT22;2924;51.458;7.046;2022-11-21T03:00:12;2.60;99.90
5796;DHT22;2924;51.458;7.046;2022-11-21T03:02:38;2.60;99.90
5796;DHT22;2924;51.458;7.046;2022-11-21T03:05:06;2.60;99.90
5796;DHT22;2924;51.458;7.046;2022-11-21T03:07:32;2.60;99.90
5796;DHT22;2924;51.458;7.046;2022-11-21T03:09:57;2.60;99.90
5796;DHT22;2924;51.458;7.046;2022-11-21T03:12:23;2.50;99.90
5796;DHT22;2924;51.458;7.046;2022-11-21T03:14:49;2.60;99.90
5796;DHT22;2924;51.458;7.046;2022-11-21T03:17:15;2.50;99.90
5796;DHT22;2924;51.458;7.046;2022-11-21T03:19:40;2.50;99.90
5796;DHT22;2924;51.458;7.046;2022-11-21T03:22:06;2.60;99.90
5796;DHT22;2924;51.458;7.046;2022-11-21T03:24:32;2.50;99.90
5796;DHT22;2924;51.458;7.046;2022-11-21T03:26:57;2.50;99.90
5796;DHT22;2924;51.458;7.046;2022-11-21T03:29:23;2.50;99.90
5796;DHT22;2924;51.458;7.046;2022-11-21T03:31:49;2.50;99.90
5796;DHT22;2924;51.458;7.046;2022-11-21T03:34:15;2.50;99.90
5796;DHT22;2924;51.458;7.046;2022-11-21T03:36:40;2.50;99.90
5796;DHT22;2924;51.458;7.046;2022-11-21T03:39:07;2.50;99.90
5796;DHT22;2924;51.458;7.046;2022-11-21T03:41:33;2.50;99.90
5796;DHT22;2924;51.458;7.046;2022-11-21T03:44:04;2.60;99.90
5796;DHT22;2924;51.458;7.046;2022-11-21T03:46:32;2.60;99.90
5796;DHT22;2924;51.458;7.046;2022-11-21T03:48:58;2.60;99.90
5796;DHT22;2924;51.458;7.046;2022-11-21T03:51:24;2.60;99.90
5796;DHT22;2924;51.458;7.046;2022-11-21T03:53:50;2.50;99.90
5796;DHT22;2924;51.458;7.046;2022-11-21T03:56:16;2.50;99.90
5796;DHT22;2924;51.458;7.046;2022-11-21T03:58:42;2.60;99.90
5796;DHT22;2924;51.458;7.046;2022-11-21T04:01:08;2.60;99.90
5796;DHT22;2924;51.458;7.046;2022-11-21T04:03:34;2.60;99.90
5796;DHT22;2924;51.458;7.046;2022-11-21T04:06:00;2.70;99.90
5796;DHT22;2924;51.458;7.046;2022-11-21T04:08:25;2.60;99.90
5796;DHT22;2924;51.458;7.046;2022-11-21T04:10:52;2.60;99.90
5796;DHT22;2924;51.458;7.046;2022-11-21T04:13:19;2.70;99.90
5796;DHT22;2924;51.458;7.046;2022-11-21T04:15:45;2.70;99.90
5796;DHT22;2924;51.458;7.046;2022-11-21T04:18:11;2.70;99.90
5796;DHT22;2924;51.458;7.046;2022-11-21T04:20:37;2.70;99.90
5796;DHT22;2924;51.458;7.046;2022-11-21T04:23:03;2.70;99.90
5796;DHT22;2924;51.458;7.046;2022-11-21T04:25:29;2.60;99.90
5796;DHT22;2924;51.458;7.046;2022-11-21T04:27:56;2.70;99.90
5796;DHT22;2924;51.458;7.046;2022-11-21T04:30:21;2.70;99.90
5796;DHT22;2924;51.458;7.046;2022-11-21T04:32:50;2.70;99.90
5796;DHT22;2924;51.458;7.046;2022-11-21T04:35:15;2.70;99.90
5796;DHT22;2924;51.458;7.046;2022-11-21T04:37:41;2.70;99.90
5796;DHT22;2924;51.458;7.046;2022-11-21T04:40:07;2.70;99.90
5796;DHT22;2924;51.458;7.046;2022-11-21T04:42:33;2.70;99.90
5796;DHT22;2924;51.458;7.046;2022-11-21T04:44:58;2.70;99.90
5796;DHT22;2924;51.458;7.046;2022-11-21T04:47:24;2.70;99.90
5796;DHT22;2924;51.458;7.046;2022-11-21T04:49:49;2.70;99.90
5796;DHT22;2924;51.458;7.046;2022-11-21T04:52:15;2.70;99.90
5796;DHT22;2924;51.458;7.046;2022-11-21T04:54:41;2.70;99.90
5796;DHT22;2924;51.458;7.046;2022-11-21T04:57:06;2.80;99.90
5796;DHT22;2924;51.458;7.046;2022-11-21T04:59:32;2.80;99.90
5796;DHT22;2924;51.458;7.046;2022-11-21T05:01:58;2.90;99.90
5796;DHT22;2924;51.458;7.046;2022-11-21T05:04:24;2.80;99.90
5796;DHT22;2924;51.458;7.046;2022-11-21T05:06:50;2.80;99.90
5796;DHT22;2924;51.458;7.046;2022-11-21T05:09:15;2.80;99.90
5796;DHT22;2924;51.458;7.046;2022-11-21T05:11:41;2.80;99.90
5796;DHT22;2924;51.458;7.046;2022-11-21T05:14:26;2.80;99.90
5796;DHT22;2924;51.458;7.046;2022-11-21T05:16:52;2.90;99.90
5796;DHT22;2924;51.458;7.046;2022-11-21T05:19:18;2.90;99.90
5796;DHT22;2924;51.458;7.046;2022-11-21T05:21:43;2.90;99.90
5796;DHT22;2924;51.458;7.046;2022-11-21T05:24:09;2.90;99.90
5796;DHT22;2924;51.458;7.046;2022-11-21T05:26:34;2.90;99.90
5796;DHT22;2924;51.458;7.046;2022-11-21T05:29:02;2.90;99.90
5796;DHT22;2924;51.458;7.046;2022-11-21T05:31:28;2.90;99.90
5796;DHT22;2924;51.458;7.046;2022-11-21T05:33:54;2.90;99.90
5796;DHT22;2924;51.458;7.046;2022-11-21T05:36:20;3.00;99.90
5796;DHT22;2924;51.458;7.046;2022-11-21T05:38:45;3.00;99.90
5796;DHT22;2924;51.458;7.046;2022-11-21T05:41:11;3.00;99.90
5796;DHT22;2924;51.458;7.046;2022-11-21T05:43:37;3.00;99.90
5796;DHT22;2924;51.458;7.046;2022-11-21T05:46:22;3.00;99.90
5796;DHT22;2924;51.458;7.046;2022-11-21T05:48:50;3.00;99.90
5796;DHT22;2924;51.458;7.046;2022-11-21T05:51:17;3.00;99.90
5796;DHT22;2924;51.458;7.046;2022-11-21T05:53:44;3.00;99.90
5796;DHT22;2924;51.458;7.046;2022-11-21T05:56:12;3.00;99.90
5796;DHT22;2924;51.458;7.046;2022-11-21T05:58:38;3.00;99.90
5796;DHT22;2924;51.458;7.046;2022-11-21T06:01:05;2.90;99.90
5796;DHT22;2924;51.458;7.046;2022-11-21T06:03:34;3.00;99.90
5796;DHT22;2924;51.458;7.046;2022-11-21T06:08:38;3.00;99.90
5796;DHT22;2924;51.458;7.046;2022-11-21T06:11:05;3.00;99.90
5796;DHT22;2924;51.458;7.046;2022-11-21T06:13:31;3.00;99.90
5796;DHT22;2924;51.458;7.046;2022-11-21T06:16:17;3.00;99.90
5796;DHT22;2924;51.458;7.046;2022-11-21T06:18:46;3.00;99.90
5796;DHT22;2924;51.458;7.046;2022-11-21T06:21:17;3.00;99.90
5796;DHT22;2924;51.458;7.046;2022-11-21T06:23:43;3.10;99.90
5796;DHT22;2924;51.458;7.046;2022-11-21T06:26:17;3.10;99.90
5796;DHT22;2924;51.458;7.046;2022-11-21T06:28:44;3.10;99.90
5796;DHT22;2924;51.458;7.046;2022-11-21T06:31:17;3.00;99.90
5796;DHT22;2924;51.458;7.046;2022-11-21T06:33:44;3.00;99.90
5796;DHT22;2924;51.458;7.046;2022-11-21T06:36:15;2.90;99.90
5796;DHT22;2924;51.458;7.046;2022-11-21T06:38:41;2.90;99.90
5796;DHT22;2924;51.458;7.046;2022-11-21T06:41:14;3.00;99.90
5796;DHT22;2924;51.458;7.046;2022-11-21T06:43:40;2.90;99.90
5796;DHT22;2924;51.458;7.046;2022-11-21T06:46:06;2.90;99.90
5796;DHT22;2924;51.458;7.046;2022-11-21T06:48:33;2.90;99.90
5796;DHT22;2924;51.458;7.046;2022-11-21T06:51:07;2.90;99.90
5796;DHT22;2924;51.458;7.046;2022-11-21T06:53:35;2.90;99.90
5796;DHT22;2924;51.458;7.046;2022-11-21T06:56:01;3.00;99.90
5796;DHT22;2924;51.458;7.046;2022-11-21T06:58:27;3.00;99.90
5796;DHT22;2924;51.458;7.046;2022-11-21T07:00:54;3.10;99.90
5796;DHT22;2924;51.458;7.046;2022-11-21T07:03:20;3.00;99.90
5796;DHT22;2924;51.458;7.046;2022-11-21T07:05:47;3.10;99.90
5796;DHT22;2924;51.458;7.046;2022-11-21T07:08:13;3.20;99.90
5796;DHT22;2924;51.458;7.046;2022-11-21T07:10:39;3.10;99.90
5796;DHT22;2924;51.458;7.046;2022-11-21T07:13:04;3.00;99.90
5796;DHT22;2924;51.458;7.046;2022-11-21T07:15:51;3.00;99.90
5796;DHT22;2924;51.458;7.046;2022-11-21T07:18:17;3.00;99.90
5796;DHT22;2924;51.458;7.046;2022-11-21T07:20:43;3.00;99.90
5796;DHT22;2924;51.458;7.046;2022-11-21T07:23:09;3.00;99.90
5796;DHT22;2924;51.458;7.046;2022-11-21T07:25:35;3.10;99.90
5796;DHT22;2924;51.458;7.046;2022-11-21T07:28:01;3.10;99.90
5796;DHT22;2924;51.458;7.046;2022-11-21T07:30:27;3.10;99.90
5796;DHT22;2924;51.458;7.046;2022-11-21T07:32:57;3.20;99.90
5796;DHT22;2924;51.458;7.046;2022-11-21T07:35:24;3.20;99.90
5796;DHT22;2924;51.458;7.046;2022-11-21T07:37:49;3.30;99.90
5796;DHT22;2924;51.458;7.046;2022-11-21T07:40:15;3.30;99.90
5796;DHT22;2924;51.458;7.046;2022-11-21T07:42:41;3.30;99.90
5796;DHT22;2924;51.458;7.046;2022-11-21T07:45:07;3.30;99.90
5796;DHT22;2924;51.458;7.046;2022-11-21T07:47:32;3.30;99.90
5796;DHT22;2924;51.458;7.046;2022-11-21T07:49:58;3.30;99.90
5796;DHT22;2924;51.458;7.046;2022-11-21T07:52:24;3.30;99.90
5796;DHT22;2924;51.458;7.046;2022-11-21T07:54:50;3.40;99.90
5796;DHT22;2924;51.458;7.046;2022-11-21T07:57:16;3.40;99.90
5796;DHT22;2924;51.458;7.046;2022-11-21T07:59:41;3.50;99.90
5796;DHT22;2924;51.458;7.046;2022-11-21T08:02:20;3.50;99.90
5796;DHT22;2924;51.458;7.046;2022-11-21T08:04:46;3.50;99.90
5796;DHT22;2924;51.458;7.046;2022-11-21T08:07:16;3.50;99.90
5796;DHT22;2924;51.458;7.046;2022-11-21T08:09:42;3.60;99.90
5796;DHT22;2924;51.458;7.046;2022-11-21T08:12:08;3.60;99.90
5796;DHT22;2924;51.458;7.046;2022-11-21T08:14:35;3.60;99.90
5796;DHT22;2924;51.458;7.046;2022-11-21T08:17:01;3.60;99.90
5796;DHT22;2924;51.458;7.046;2022-11-21T08:19:27;3.60;99.90
5796;DHT22;2924;51.458;7.046;2022-11-21T08:21:53;3.60;99.90
5796;DHT22;2924;51.458;7.046;2022-11-21T08:24:18;3.60;99.90
5796;DHT22;2924;51.458;7.046;2022-11-21T08:26:44;3.50;99.90
5796;DHT22;2924;51.458;7.046;2022-11-21T08:29:11;3.50;99.90
5796;DHT22;2924;51.458;7.046;2022-11-21T08:31:37;3.60;99.90
5796;DHT22;2924;51.458;7.046;2022-11-21T08:34:03;3.70;99.90
5796;DHT22;2924;51.458;7.046;2022-11-21T08:36:29;3.70;99.90
5796;DHT22;2924;51.458;7.046;2022-11-21T08:38:55;3.70;99.90
5796;DHT22;2924;51.458;7.046;2022-11-21T08:41:21;3.80;99.90
5796;DHT22;2924;51.458;7.046;2022-11-21T08:44:05;3.90;99.90
5796;DHT22;2924;51.458;7.046;2022-11-21T08:46:33;3.90;99.90
5796;DHT22;2924;51.458;7.046;2022-11-21T08:49:05;4.00;99.90
5796;DHT22;2924;51.458;7.046;2022-11-21T08:51:31;4.10;99.90
5796;DHT22;2924;51.458;7.046;2022-11-21T08:53:57;4.20;99.90
5796;DHT22;2924;51.458;7.046;2022-11-21T08:56:23;4.30;99.90
5796;DHT22;2924;51.458;7.046;2022-11-21T08:58:49;4.30;99.90
5796;DHT22;2924;51.458;7.046;2022-11-21T09:01:14;4.30;99.90
5796;DHT22;2924;51.458;7.046;2022-11-21T09:03:40;4.30;99.90
5796;DHT22;2924;51.458;7.046;2022-11-21T09:06:06;4.30;99.90
5796;DHT22;2924;51.458;7.046;2022-11-21T09:08:32;4.30;99.90
5796;DHT22;2924;51.458;7.046;2022-11-21T09:11:01;4.30;99.90
5796;DHT22;2924;51.458;7.046;2022-11-21T09:13:27;4.40;99.90
5796;DHT22;2924;51.458;7.046;2022-11-21T09:15:53;4.40;99.90
5796;DHT22;2924;51.458;7.046;2022-11-21T09:18:37;4.50;99.90
5796;DHT22;2924;51.458;7.046;2022-11-21T09:21:03;4.50;99.90
5796;DHT22;2924;51.458;7.046;2022-11-21T09:23:28;4.50;99.90
5796;DHT22;2924;51.458;7.046;2022-11-21T09:25:54;4.50;99.90
5796;DHT22;2924;51.458;7.046;2022-11-21T09:28:20;4.50;99.90
5796;DHT22;2924;51.458;7.046;2022-11-21T09:30:46;4.60;99.90
5796;DHT22;2924;51.458;7.046;2022-11-21T09:33:14;4.70;99.90
5796;DHT22;2924;51.458;7.046;2022-11-21T09:35:41;4.70;99.90
5796;DHT22;2924;51.458;7.046;2022-11-21T09:38:07;4.80;99.90
5796;DHT22;2924;51.458;7.046;2022-11-21T09:40:34;4.90;99.90
5796;DHT22;2924;51.458;7.046;2022-11-21T09:45:45;5.10;99.90
5796;DHT22;2924;51.458;7.046;2022-11-21T09:48:16;5.10;99.90
5796;DHT22;2924;51.458;7.046;2022-11-21T09:51:10;5.20;99.90
5796;DHT22;2924;51.458;7.046;2022-11-21T09:53:38;5.30;99.90
5796;DHT22;2924;51.458;7.046;2022-11-21T09:56:13;5.30;99.90
5796;DHT22;2924;51.458;7.046;2022-11-21T09:58:47;5.50;99.90
5796;DHT22;2924;51.458;7.046;2022-11-21T10:01:14;5.60;99.90
5796;DHT22;2924;51.458;7.046;2022-11-21T10:03:48;5.70;99.90
5796;DHT22;2924;51.458;7.046;2022-11-21T10:06:43;5.80;99.90
5796;DHT22;2924;51.458;7.046;2022-11-21T10:12:17;5.80;99.90
5796;DHT22;2924;51.458;7.046;2022-11-21T10:15:17;5.70;99.90
5796;DHT22;2924;51.458;7.046;2022-11-21T10:20:45;5.70;99.90
5796;DHT22;2924;51.458;7.046;2022-11-21T10:23:21;5.80;99.90
5796;DHT22;2924;51.458;7.046;2022-11-21T10:25:55;6.00;99.90
5796;DHT22;2924;51.458;7.046;2022-11-21T10:30:58;6.20;99.90
5796;DHT22;2924;51.458;7.046;2022-11-21T10:33:33;6.20;99.90
5796;DHT22;2924;51.458;7.046;2022-11-21T10:38:37;6.30;99.90
5796;DHT22;2924;51.458;7.046;2022-11-21T10:41:21;6.50;99.90
5796;DHT22;2924;51.458;7.046;2022-11-21T10:47:00;6.60;99.90
5796;DHT22;2924;51.458;7.046;2022-11-21T10:49:29;6.70;99.90
5796;DHT22;2924;51.458;7.046;2022-11-21T10:52:15;6.80;99.90
5796;DHT22;2924;51.458;7.046;2022-11-21T10:57:32;7.00;99.90
5796;DHT22;2924;51.458;7.046;2022-11-21T11:02:56;7.00;99.90
5796;DHT22;2924;51.458;7.046;2022-11-21T11:05:28;7.00;99.90
5796;DHT22;2924;51.458;7.046;2022-11-21T11:08:11;6.90;99.90
5796;DHT22;2924;51.458;7.046;2022-11-21T11:10:45;6.80;99.90
5796;DHT22;2924;51.458;7.046;2022-11-21T11:13:25;6.80;99.90
5796;DHT22;2924;51.458;7.046;2022-11-21T11:16:02;6.90;99.90
5796;DHT22;2924;51.458;7.046;2022-11-21T11:18:28;7.10;99.90
5796;DHT22;2924;51.458;7.046;2022-11-21T11:21:14;7.10;99.90
5796;DHT22;2924;51.458;7.046;2022-11-21T11:23:40;7.00;99.90
5796;DHT22;2924;51.458;7.046;2022-11-21T11:28:43;7.40;99.90
5796;DHT22;2924;51.458;7.046;2022-11-21T11:31:09;7.80;99.90
5796;DHT22;2924;51.458;7.046;2022-11-21T11:33:37;8.30;99.90
5796;DHT22;2924;51.458;7.046;2022-11-21T11:36:30;8.40;99.90
5796;DHT22;2924;51.458;7.046;2022-11-21T11:39:00;8.30;99.90
5796;DHT22;2924;51.458;7.046;2022-11-21T11:47:59;8.10;99.90
5796;DHT22;2924;51.458;7.046;2022-11-21T11:50:45;8.10;99.90
5796;DHT22;2924;51.458;7.046;2022-11-21T11:53:15;8.00;99.90
5796;DHT22;2924;51.458;7.046;2022-11-21T11:56:04;7.80;99.90
5796;DHT22;2924;51.458;7.046;2022-11-21T11:58:44;7.70;99.90
5796;DHT22;2924;51.458;7.046;2022-11-21T12:01:41;7.70;99.90
5796;DHT22;2924;51.458;7.046;2022-11-21T12:04:21;7.90;99.90
5796;DHT22;2924;51.458;7.046;2022-11-21T12:09:55;8.10;99.90
5796;DHT22;2924;51.458;7.046;2022-11-21T12:12:35;8.20;99.90
5796;DHT22;2924;51.458;7.046;2022-11-21T12:21:13;8.70;99.90
5796;DHT22;2924;51.458;7.046;2022-11-21T12:23:53;8.60;99.90
5796;DHT22;2924;51.458;7.046;2022-11-21T12:34:37;8.50;99.90
5796;DHT22;2924;51.458;7.046;2022-11-21T12:39:58;8.00;99.90
5796;DHT22;2924;51.458;7.046;2022-11-21T12:45:36;7.90;99.90
5796;DHT22;2924;51.458;7.046;2022-11-21T12:48:14;8.00;99.90
5796;DHT22;2924;51.458;7.046;2022-11-21T12:57:14;8.30;99.90
5796;DHT22;2924;51.458;7.046;2022-11-21T13:05:30;8.70;99.90
5796;DHT22;2924;51.458;7.046;2022-11-21T13:08:12;8.70;99.90
5796;DHT22;2924;51.458;7.046;2022-11-21T13:10:49;8.60;99.90
5796;DHT22;2924;51.458;7.046;2022-11-21T13:13:38;8.40;99.90
5796;DHT22;2924;51.458;7.046;2022-11-21T13:16:09;8.10;99.90
5796;DHT22;2924;51.458;7.046;2022-11-21T13:18:45;7.90;99.90
5796;DHT22;2924;51.458;7.046;2022-11-21T13:21:47;7.80;99.90
5796;DHT22;2924;51.458;7.046;2022-11-21T13:27:40;7.60;99.90
5796;DHT22;2924;51.458;7.046;2022-11-21T13:32:37;7.50;99.90
5796;DHT22;2924;51.458;7.046;2022-11-21T13:53:56;7.20;99.90
5796;DHT22;2924;51.458;7.046;2022-11-21T13:56:44;7.20;99.90
5796;DHT22;2924;51.458;7.046;2022-11-21T13:59:41;7.20;99.90
5796;DHT22;2924;51.458;7.046;2022-11-21T14:07:31;7.10;99.90
5796;DHT22;2924;51.458;7.046;2022-11-21T14:10:03;7.00;99.90
5796;DHT22;2924;51.458;7.046;2022-11-21T14:12:32;7.00;99.90
5796;DHT22;2924;51.458;7.046;2022-11-21T14:17:48;6.90;99.90
5796;DHT22;2924;51.458;7.046;2022-11-21T14:20:33;6.90;99.90
5796;DHT22;2924;51.458;7.046;2022-11-21T14:23:14;6.80;99.90
5796;DHT22;2924;51.458;7.046;2022-11-21T14:25:41;6.70;99.90
5796;DHT22;2924;51.458;7.046;2022-11-21T14:28:25;6.70;99.90
5796;DHT22;2924;51.458;7.046;2022-11-21T14:31:04;6.70;99.90
5796;DHT22;2924;51.458;7.046;2022-11-21T14:38:46;6.60;99.90
5796;DHT22;2924;51.458;7.046;2022-11-21T14:46:27;6.60;99.90
5796;DHT22;2924;51.458;7.046;2022-11-21T14:48:53;6.50;99.90
5796;DHT22;2924;51.458;7.046;2022-11-21T14:51:23;6.40;99.90
5796;DHT22;2924;51.458;7.046;2022-11-21T14:53:50;6.40;99.90
5796;DHT22;2924;51.458;7.046;2022-11-21T14:56:26;6.40;99.90
5796;DHT22;2924;51.458;7.046;2022-11-21T14:58:55;6.30;99.90
5796;DHT22;2924;51.458;7.046;2022-11-21T15:01:24;6.30;99.90
5796;DHT22;2924;51.458;7.046;2022-11-21T15:04:05;6.30;99.90
5796;DHT22;2924;51.458;7.046;2022-11-21T15:06:42;6.20;99.90
5796;DHT22;2924;51.458;7.046;2022-11-21T15:09:12;6.10;99.90
5796;DHT22;2924;51.458;7.046;2022-11-21T15:11:51;6.00;99.90
5796;DHT22;2924;51.458;7.046;2022-11-21T15:14:27;5.90;99.90
5796;DHT22;2924;51.458;7.046;2022-11-21T15:16:56;5.80;99.90
5796;DHT22;2924;51.458;7.046;2022-11-21T15:19:29;5.90;99.90
5796;DHT22;2924;51.458;7.046;2022-11-21T15:21:58;5.80;99.90
5796;DHT22;2924;51.458;7.046;2022-11-21T15:24:41;5.80;99.90
5796;DHT22;2924;51.458;7.046;2022-11-21T15:30:27;5.70;99.90
5796;DHT22;2924;51.458;7.046;2022-11-21T15:38:23;5.70;99.90
5796;DHT22;2924;51.458;7.046;2022-11-21T15:40:57;5.70;99.90
5796;DHT22;2924;51.458;7.046;2022-11-21T15:44:13;5.60;99.90
5796;DHT22;2924;51.458;7.046;2022-11-21T15:46:41;5.60;99.90
5796;DHT22;2924;51.458;7.046;2022-11-21T15:49:09;5.60;99.90
5796;DHT22;2924;51.458;7.046;2022-11-21T15:51:39;5.50;99.90
5796;DHT22;2924;51.458;7.046;2022-11-21T15:54:13;5.50;99.90
5796;DHT22;2924;51.458;7.046;2022-11-21T15:56:38;5.50;99.90
5796;DHT22;2924;51.458;7.046;2022-11-21T15:59:05;5.50;99.90
5796;DHT22;2924;51.458;7.046;2022-11-21T16:01:31;5.40;99.90
5796;DHT22;2924;51.458;7.046;2022-11-21T16:04:03;5.40;99.90
5796;DHT22;2924;51.458;7.046;2022-11-21T16:06:29;5.30;99.90
5796;DHT22;2924;51.458;7.046;2022-11-21T16:08:59;5.30;99.90
5796;DHT22;2924;51.458;7.046;2022-11-21T16:13:57;5.40;99.90
5796;DHT22;2924;51.458;7.046;2022-11-21T16:16:25;5.40;99.90
5796;DHT22;2924;51.458;7.046;2022-11-21T16:18:51;5.40;99.90
5796;DHT22;2924;51.458;7.046;2022-11-21T16:21:17;5.40;99.90
5796;DHT22;2924;51.458;7.046;2022-11-21T16:23:43;5.40;99.90
5796;DHT22;2924;51.458;7.046;2022-11-21T16:26:10;5.40;99.90
5796;DHT22;2924;51.458;7.046;2022-11-21T16:28:36;5.50;99.90
5796;DHT22;2924;51.458;7.046;2022-11-21T16:31:02;5.50;99.90
5796;DHT22;2924;51.458;7.046;2022-11-21T16:33:29;5.50;99.90
5796;DHT22;2924;51.458;7.046;2022-11-21T16:35:54;5.50;99.90
5796;DHT22;2924;51.458;7.046;2022-11-21T16:38:22;5.50;99.90
5796;DHT22;2924;51.458;7.046;2022-11-21T16:40:56;5.40;99.90
5796;DHT22;2924;51.458;7.046;2022-11-21T16:43:22;5.40;99.90
5796;DHT22;2924;51.458;7.046;2022-11-21T16:45:48;5.40;99.90
5796;DHT22;2924;51.458;7.046;2022-11-21T16:48:14;5.50;99.90
5796;DHT22;2924;51.458;7.046;2022-11-21T16:50:40;5.50;99.90
5796;DHT22;2924;51.458;7.046;2022-11-21T16:53:06;5.50;99.90
5796;DHT22;2924;51.458;7.046;2022-11-21T16:55:31;5.50;99.90
5796;DHT22;2924;51.458;7.046;2022-11-21T16:57:57;5.40;99.90
5796;DHT22;2924;51.458;7.046;2022-11-21T17:00:26;5.40;99.90
5796;DHT22;2924;51.458;7.046;2022-11-21T17:02:54;5.40;99.90
5796;DHT22;2924;51.458;7.046;2022-11-21T17:05:20;5.50;99.90
5796;DHT22;2924;51.458;7.046;2022-11-21T17:07:46;5.40;99.90
5796;DHT22;2924;51.458;7.046;2022-11-21T17:10:13;5.40;99.90
5796;DHT22;2924;51.458;7.046;2022-11-21T17:12:40;5.50;99.90
5796;DHT22;2924;51.458;7.046;2022-11-21T17:15:08;5.40;99.90
5796;DHT22;2924;51.458;7.046;2022-11-21T17:17:35;5.40;99.90
5796;DHT22;2924;51.458;7.046;2022-11-21T17:20:01;5.40;99.90
5796;DHT22;2924;51.458;7.046;2022-11-21T17:22:27;5.40;99.90
5796;DHT22;2924;51.458;7.046;2022-11-21T17:24:53;5.40;99.90
5796;DHT22;2924;51.458;7.046;2022-11-21T17:27:20;5.40;99.90
5796;DHT22;2924;51.458;7.046;2022-11-21T17:29:46;5.40;99.90
5796;DHT22;2924;51.458;7.046;2022-11-21T17:32:11;5.40;99.90
5796;DHT22;2924;51.458;7.046;2022-11-21T17:34:37;5.40;99.90
5796;DHT22;2924;51.458;7.046;2022-11-21T17:37:03;5.40;99.90
5796;DHT22;2924;51.458;7.046;2022-11-21T17:39:28;5.60;99.90
5796;DHT22;2924;51.458;7.046;2022-11-21T17:41:54;5.50;99.90
5796;DHT22;2924;51.458;7.046;2022-11-21T17:44:20;5.50;99.90
5796;DHT22;2924;51.458;7.046;2022-11-21T17:46:45;5.50;99.90
5796;DHT22;2924;51.458;7.046;2022-11-21T17:49:12;5.50;99.90
5796;DHT22;2924;51.458;7.046;2022-11-21T17:51:39;5.60;99.90
5796;DHT22;2924;51.458;7.046;2022-11-21T17:54:06;5.60;99.90
5796;DHT22;2924;51.458;7.046;2022-11-21T17:56:36;5.50;99.90
5796;DHT22;2924;51.458;7.046;2022-11-21T17:59:04;5.50;99.90
5796;DHT22;2924;51.458;7.046;2022-11-21T18:01:30;5.50;99.90
5796;DHT22;2924;51.458;7.046;2022-11-21T18:03:58;5.50;99.90
5796;DHT22;2924;51.458;7.046;2022-11-21T18:06:26;5.60;99.90
5796;DHT22;2924;51.458;7.046;2022-11-21T18:08:53;5.60;99.90
5796;DHT22;2924;51.458;7.046;2022-11-21T18:11:20;5.60;99.90
5796;DHT22;2924;51.458;7.046;2022-11-21T18:13:47;5.50;99.90
5796;DHT22;2924;51.458;7.046;2022-11-21T18:16:16;5.50;99.90
5796;DHT22;2924;51.458;7.046;2022-11-21T18:18:42;5.50;99.90
5796;DHT22;2924;51.458;7.046;2022-11-21T18:21:25;5.50;99.90
5796;DHT22;2924;51.458;7.046;2022-11-21T18:23:52;5.50;99.90
5796;DHT22;2924;51.458;7.046;2022-11-21T18:26:24;5.60;99.90
5796;DHT22;2924;51.458;7.046;2022-11-21T18:28:53;5.60;99.90
5796;DHT22;2924;51.458;7.046;2022-11-21T18:31:21;5.50;99.90
5796;DHT22;2924;51.458;7.046;2022-11-21T18:33:49;5.50;99.90
5796;DHT22;2924;51.458;7.046;2022-11-21T18:36:16;5.50;99.90
5796;DHT22;2924;51.458;7.046;2022-11-21T18:38:43;5.50;99.90
5796;DHT22;2924;51.458;7.046;2022-11-21T18:41:14;5.60;99.90
5796;DHT22;2924;51.458;7.046;2022-11-21T18:43:41;5.60;99.90
5796;DHT22;2924;51.458;7.046;2022-11-21T18:46:11;5.70;99.90